Andover, Massachusetts
Current Conditions -  °F | °C
As of 9:54 PM on Monday 20 Oct 2014 (Local Time) from KLWM Reporting Station
Clear Clear  
Wind Chill:   Ceiling: Unl
Heat Index:   Visibility: 10mi
Dew Point:   Wind: 3mph
Humidity: 61%   Direction: 190°S
Pressure: 30.02"   Gusts: NA
Location:  42.65°N, 71.14°W
Report Text: KLWM 210154Z AUTO 19003KT 10SM CLR 09/02 A3002 RMK AO2 SLP165 T00940022
Loading
Personal Weather Stations






























Interactive Weather Map
Tropical Storm Tracking
New forecast layout! Learn more

10-Day Weather Forecast

Advertisements
Track Severe Weather on mobile